Time;durP1;ratioP1;P1;durP2;ratioP2;P2;SDS_P1;SDS_P2;PMS_P1;PMS_P2;Temp;Humidity;BMP_temperature;BMP_pressure;BME280_temperature;BME280_humidity;BME280_pressure;Samples;Min_cycle;Max_cycle;Signal;HPM_P1;HPM_P2
2023/12/10 00:06:37;;;;;;;;;;;10.20;99.90;;;;;;6715682;88;20451;-78
2023/12/10 00:16:38;;;;;;;;;;;10.20;99.90;;;;;;6717036;88;20055;-78
2023/12/10 00:26:38;;;;;;;;;;;10.10;99.90;;;;;;6715319;88;20216;-77
2023/12/10 00:36:39;;;;;;;;;;;10.10;99.90;;;;;;6716036;88;20072;-77
2023/12/10 00:46:39;;;;;;;;;;;10.10;99.90;;;;;;6717004;88;20125;-79
2023/12/10 00:56:41;;;;;;;;;;;10.20;99.90;;;;;;6717917;88;20071;-77
2023/12/10 01:06:42;;;;;;;;;;;10.30;99.90;;;;;;6720499;88;20079;-77
2023/12/10 01:16:43;;;;;;;;;;;10.30;99.90;;;;;;6717965;88;20132;-77
2023/12/10 01:26:43;;;;;;;;;;;10.40;99.90;;;;;;6710580;88;20079;-77
2023/12/10 01:36:43;;;;;;;;;;;10.30;99.90;;;;;;6711668;88;20062;-77
2023/12/10 01:46:45;;;;;;;;;;;10.30;99.90;;;;;;6711047;88;20146;-77
2023/12/10 01:56:46;;;;;;;;;;;10.40;99.90;;;;;;6711394;88;20073;-78
2023/12/10 02:06:47;;;;;;;;;;;10.40;99.90;;;;;;6711672;88;20499;-77
2023/12/10 02:16:47;;;;;;;;;;;10.40;99.90;;;;;;6712102;88;20109;-78
2023/12/10 02:26:48;;;;;;;;;;;10.30;99.90;;;;;;6714842;88;20058;-78
2023/12/10 02:36:48;;;;;;;;;;;10.30;99.90;;;;;;6717143;88;20074;-78
2023/12/10 02:46:49;;;;;;;;;;;10.30;99.90;;;;;;6719204;88;20112;-78
2023/12/10 02:56:49;;;;;;;;;;;10.10;99.90;;;;;;6718609;88;20075;-77
2023/12/10 03:06:50;;;;;;;;;;;9.80;99.90;;;;;;6721892;88;20900;-76
2023/12/10 03:16:50;;;;;;;;;;;9.80;99.90;;;;;;6721402;88;20074;-77
2023/12/10 03:26:51;;;;;;;;;;;9.70;99.90;;;;;;6719666;88;20075;-77
2023/12/10 03:36:51;;;;;;;;;;;9.60;99.90;;;;;;6716987;88;20050;-77
2023/12/10 03:46:52;;;;;;;;;;;9.60;99.90;;;;;;6724629;88;20245;-78
2023/12/10 03:56:52;;;;;;;;;;;9.60;99.90;;;;;;6711434;88;20068;-79
2023/12/10 04:06:52;;;;;;;;;;;9.70;99.90;;;;;;6711800;88;20192;-77
2023/12/10 04:16:54;;;;;;;;;;;9.80;99.90;;;;;;6717041;88;20074;-77
2023/12/10 04:26:54;;;;;;;;;;;9.90;99.90;;;;;;6722750;88;20502;-77
2023/12/10 04:36:55;;;;;;;;;;;10.00;99.90;;;;;;6724419;88;20184;-78
2023/12/10 04:46:55;;;;;;;;;;;9.90;99.90;;;;;;6722768;88;20051;-78
2023/12/10 04:56:56;;;;;;;;;;;9.90;99.90;;;;;;6719061;88;20132;-78
2023/12/10 05:06:57;;;;;;;;;;;10.10;99.90;;;;;;6712077;88;20138;-77
2023/12/10 05:16:57;;;;;;;;;;;10.20;99.90;;;;;;6718530;88;20493;-77
2023/12/10 05:26:58;;;;;;;;;;;10.20;99.90;;;;;;6712423;88;20059;-78
2023/12/10 05:36:58;;;;;;;;;;;10.30;99.90;;;;;;6720975;88;20127;-77
2023/12/10 05:47:22;;;;;;;;;;;10.30;99.90;;;;;;6756552;77;22419;-81
2023/12/10 05:57:22;;;;;;;;;;;10.30;99.90;;;;;;6712350;88;20099;-80
2023/12/10 06:07:26;;;;;;;;;;;10.30;99.90;;;;;;6713474;88;20054;-82
2023/12/10 06:17:26;;;;;;;;;;;10.30;99.90;;;;;;6695970;88;20792;-80
2023/12/10 06:27:27;;;;;;;;;;;10.30;99.90;;;;;;6723460;88;20063;-81
2023/12/10 06:37:27;;;;;;;;;;;10.30;99.90;;;;;;6731382;88;20060;-82
2023/12/10 06:47:28;;;;;;;;;;;10.30;99.90;;;;;;6732327;88;20981;-82
2023/12/10 06:57:28;;;;;;;;;;;10.40;99.90;;;;;;6728021;88;20038;-81
2023/12/10 07:07:29;;;;;;;;;;;10.30;99.90;;;;;;6727600;88;20105;-81
2023/12/10 07:17:29;;;;;;;;;;;10.30;99.90;;;;;;6729891;88;20086;-80
2023/12/10 07:27:30;;;;;;;;;;;10.40;99.90;;;;;;6723065;88;20124;-80
2023/12/10 07:37:31;;;;;;;;;;;10.30;99.90;;;;;;6726265;88;20048;-79
2023/12/10 07:47:31;;;;;;;;;;;10.30;99.90;;;;;;6736636;88;20187;-80
2023/12/10 07:57:32;;;;;;;;;;;10.30;99.90;;;;;;6733360;88;20073;-80
2023/12/10 08:07:33;;;;;;;;;;;10.30;99.90;;;;;;6722918;88;20059;-79
2023/12/10 08:17:33;;;;;;;;;;;10.20;99.90;;;;;;6730989;88;20065;-79
2023/12/10 08:27:33;;;;;;;;;;;10.30;99.90;;;;;;6726215;88;20059;-79
2023/12/10 08:37:34;;;;;;;;;;;10.20;99.90;;;;;;6722271;88;20099;-79
2023/12/10 08:47:35;;;;;;;;;;;10.30;99.90;;;;;;6721834;88;20869;-79
2023/12/10 08:57:35;;;;;;;;;;;10.40;99.90;;;;;;6737777;88;20075;-78
2023/12/10 09:07:36;;;;;;;;;;;10.50;99.90;;;;;;6738046;88;20643;-79
2023/12/10 09:17:36;;;;;;;;;;;10.70;99.90;;;;;;6732265;88;20082;-79
2023/12/10 09:27:37;;;;;;;;;;;11.00;99.90;;;;;;6719605;88;20070;-79
2023/12/10 09:37:37;;;;;;;;;;;11.40;99.90;;;;;;6729271;88;20105;-79
2023/12/10 09:47:40;;;;;;;;;;;11.70;99.90;;;;;;6726575;88;20085;-79
2023/12/10 09:57:40;;;;;;;;;;;11.60;99.90;;;;;;6720692;88;20076;-80
2023/12/10 10:07:41;;;;;;;;;;;11.90;99.90;;;;;;6731357;88;20063;-79
2023/12/10 10:17:42;;;;;;;;;;;12.20;99.90;;;;;;6731627;88;20065;-79
2023/12/10 10:27:43;;;;;;;;;;;12.20;99.90;;;;;;6735957;88;20078;-79
2023/12/10 10:37:44;;;;;;;;;;;12.60;99.90;;;;;;6731857;88;20058;-80
2023/12/10 10:47:45;;;;;;;;;;;12.30;99.90;;;;;;6732545;88;20088;-80
2023/12/10 10:57:45;;;;;;;;;;;12.40;99.90;;;;;;6725861;88;20055;-79
2023/12/10 11:07:47;;;;;;;;;;;12.10;99.90;;;;;;6733595;88;20103;-80
2023/12/10 11:17:57;;;;;;;;;;;12.60;99.90;;;;;;6736307;88;20076;-80
2023/12/10 11:27:58;;;;;;;;;;;13.40;99.90;;;;;;6737628;88;20079;-80
2023/12/10 11:37:59;;;;;;;;;;;13.70;99.90;;;;;;6728411;88;20177;-80
2023/12/10 11:47:59;;;;;;;;;;;13.30;99.90;;;;;;6726919;77;20232;-76
2023/12/10 11:57:59;;;;;;;;;;;12.90;99.90;;;;;;6711182;88;20533;-77
2023/12/10 12:08:00;;;;;;;;;;;13.70;99.90;;;;;;6705301;88;20522;-77
2023/12/10 12:18:02;;;;;;;;;;;14.30;99.90;;;;;;6711456;88;20064;-77
2023/12/10 12:28:05;;;;;;;;;;;13.80;99.90;;;;;;6707799;88;20063;-76
2023/12/10 12:38:05;;;;;;;;;;;13.40;99.90;;;;;;6709696;88;20042;-77
2023/12/10 12:48:06;;;;;;;;;;;12.70;99.90;;;;;;6710101;88;20485;-77
2023/12/10 12:58:06;;;;;;;;;;;12.50;99.90;;;;;;6705705;88;20075;-77
2023/12/10 13:08:09;;;;;;;;;;;12.20;99.90;;;;;;6707299;88;20138;-77
2023/12/10 13:18:11;;;;;;;;;;;12.00;99.90;;;;;;6709571;88;20100;-77
2023/12/10 13:28:12;;;;;;;;;;;12.10;99.90;;;;;;6707656;88;20071;-77
2023/12/10 13:38:12;;;;;;;;;;;12.00;99.90;;;;;;6711761;88;20065;-77
2023/12/10 13:48:13;;;;;;;;;;;12.00;99.90;;;;;;6708484;88;20507;-77
2023/12/10 13:58:13;;;;;;;;;;;11.90;99.90;;;;;;6711093;88;20190;-76
2023/12/10 14:08:13;;;;;;;;;;;11.80;99.90;;;;;;6710449;88;20070;-76
2023/12/10 14:18:14;;;;;;;;;;;11.80;99.90;;;;;;6706683;88;20044;-78
2023/12/10 14:28:14;;;;;;;;;;;11.70;99.90;;;;;;6715525;88;20055;-77
2023/12/10 14:38:15;;;;;;;;;;;11.60;99.90;;;;;;6715899;88;20296;-77
2023/12/10 14:48:15;;;;;;;;;;;11.40;99.90;;;;;;6721090;88;20046;-78
2023/12/10 14:58:16;;;;;;;;;;;11.20;99.90;;;;;;6715147;88;20110;-76
2023/12/10 15:08:18;;;;;;;;;;;11.00;99.90;;;;;;6710120;88;20540;-77
2023/12/10 15:18:19;;;;;;;;;;;10.90;99.90;;;;;;6712009;88;20571;-77
2023/12/10 15:28:19;;;;;;;;;;;10.80;99.90;;;;;;6713986;88;20141;-77
2023/12/10 15:38:20;;;;;;;;;;;10.70;99.90;;;;;;6716982;88;20145;-78
2023/12/10 15:48:20;;;;;;;;;;;10.70;99.90;;;;;;6703616;88;20187;-77
2023/12/10 15:58:21;;;;;;;;;;;10.60;99.90;;;;;;6706948;88;20069;-77
2023/12/10 16:08:22;;;;;;;;;;;10.60;99.90;;;;;;6714989;88;20498;-78
2023/12/10 16:18:22;;;;;;;;;;;10.60;99.90;;;;;;6708194;88;20047;-77
2023/12/10 16:28:22;;;;;;;;;;;10.60;99.90;;;;;;6709514;88;20188;-77
2023/12/10 16:38:23;;;;;;;;;;;10.50;99.90;;;;;;6710219;88;20647;-77
2023/12/10 16:48:24;;;;;;;;;;;10.50;99.90;;;;;;6708296;88;20088;-77
2023/12/10 16:58:25;;;;;;;;;;;10.50;99.90;;;;;;6708212;88;20070;-76
2023/12/10 17:08:25;;;;;;;;;;;10.60;99.90;;;;;;6708802;88;20572;-76
2023/12/10 17:18:27;;;;;;;;;;;10.60;99.90;;;;;;6709468;88;20105;-76
2023/12/10 17:28:27;;;;;;;;;;;10.70;99.90;;;;;;6712746;88;20052;-75
2023/12/10 17:38:28;;;;;;;;;;;10.50;99.90;;;;;;6711291;88;20090;-76
2023/12/10 17:48:28;;;;;;;;;;;9.60;99.90;;;;;;6710358;88;20487;-76
2023/12/10 17:58:29;;;;;;;;;;;9.10;99.90;;;;;;6706633;88;20079;-75
2023/12/10 18:08:29;;;;;;;;;;;8.90;99.90;;;;;;6706606;88;20175;-76
2023/12/10 18:18:30;;;;;;;;;;;8.90;99.90;;;;;;6707971;88;20534;-76
2023/12/10 18:28:30;;;;;;;;;;;8.90;99.90;;;;;;6706200;88;20143;-76
2023/12/10 18:38:34;;;;;;;;;;;9.00;99.90;;;;;;6707171;88;20170;-75
2023/12/10 18:48:34;;;;;;;;;;;9.10;99.90;;;;;;6707232;88;20083;-76
2023/12/10 18:58:35;;;;;;;;;;;9.20;99.90;;;;;;6704870;88;20138;-76
2023/12/10 19:08:35;;;;;;;;;;;9.30;99.90;;;;;;6705556;88;20056;-78
2023/12/10 19:18:40;;;;;;;;;;;9.40;99.90;;;;;;6711200;88;20144;-77
2023/12/10 19:28:41;;;;;;;;;;;9.50;99.90;;;;;;6715450;88;20543;-77
2023/12/10 19:38:43;;;;;;;;;;;9.70;99.90;;;;;;6710525;88;20485;-78
2023/12/10 19:48:43;;;;;;;;;;;9.70;99.90;;;;;;6711516;88;20080;-78
2023/12/10 19:58:44;;;;;;;;;;;9.70;99.90;;;;;;6711014;88;20247;-77
2023/12/10 20:08:44;;;;;;;;;;;9.60;99.90;;;;;;6707290;88;20664;-77
2023/12/10 20:18:45;;;;;;;;;;;9.80;99.90;;;;;;6710941;88;20083;-78
2023/12/10 20:28:45;;;;;;;;;;;9.80;99.90;;;;;;6711184;88;20043;-79
2023/12/10 20:38:46;;;;;;;;;;;9.80;99.90;;;;;;6717020;88;20514;-80
2023/12/10 20:48:46;;;;;;;;;;;9.80;99.90;;;;;;6715177;88;20077;-76
2023/12/10 20:58:47;;;;;;;;;;;9.90;99.90;;;;;;6706193;88;20055;-79
2023/12/10 21:08:47;;;;;;;;;;;9.90;99.90;;;;;;6718996;88;20146;-79
2023/12/10 21:18:48;;;;;;;;;;;10.10;99.90;;;;;;6705388;88;20079;-79
2023/12/10 21:28:48;;;;;;;;;;;10.20;99.90;;;;;;6710359;88;20774;-79
2023/12/10 21:38:49;;;;;;;;;;;10.40;99.90;;;;;;6708902;88;20076;-78
2023/12/10 21:48:49;;;;;;;;;;;10.40;99.90;;;;;;6710005;88;20056;-77
2023/12/10 21:58:49;;;;;;;;;;;10.50;99.90;;;;;;6712575;88;20106;-77
2023/12/10 22:08:50;;;;;;;;;;;10.70;99.90;;;;;;6710275;88;20154;-78
2023/12/10 22:18:51;;;;;;;;;;;10.60;99.90;;;;;;6707808;88;20079;-78
2023/12/10 22:28:51;;;;;;;;;;;10.90;99.90;;;;;;6710382;88;20051;-78
2023/12/10 22:38:52;;;;;;;;;;;10.90;99.90;;;;;;6711790;88;20076;-80
2023/12/10 22:48:54;;;;;;;;;;;11.00;99.90;;;;;;6710650;88;20064;-77
2023/12/10 22:58:55;;;;;;;;;;;11.00;99.90;;;;;;6712465;88;20185;-77
2023/12/10 23:08:55;;;;;;;;;;;10.90;99.90;;;;;;6708784;88;20458;-77
2023/12/10 23:18:56;;;;;;;;;;;10.70;99.90;;;;;;6708614;88;20060;-78
2023/12/10 23:28:59;;;;;;;;;;;10.70;99.90;;;;;;6712693;88;20039;-77
2023/12/10 23:38:59;;;;;;;;;;;10.30;99.90;;;;;;6711612;88;20488;-78
2023/12/10 23:49:00;;;;;;;;;;;10.20;99.90;;;;;;6711049;88;20075;-77
2023/12/10 23:59:00;;;;;;;;;;;10.40;99.90;;;;;;6710330;88;20084;-76
